Time;durP1;ratioP1;P1;durP2;ratioP2;P2;SDS_P1;SDS_P2;PMS_P1;PMS_P2;Temp;Humidity;BMP_temperature;BMP_pressure;BME280_temperature;BME280_humidity;BME280_pressure;Samples;Min_cycle;Max_cycle;Signal;HPM_P1;HPM_P2
2021/06/18 08:25:23;;;;;;;1723.15;999.90;;;26.10;99.90;;;;;;5130692;27;91956;-69
2021/06/18 08:27:49;;;;;;;1757.35;999.90;;;26.10;99.90;;;;;;5131754;28;20170;-69
2021/06/18 08:30:16;;;;;;;1820.43;999.90;;;26.20;99.90;;;;;;5131653;28;20162;-69
2021/06/18 08:32:41;;;;;;;1881.50;999.90;;;26.30;99.90;;;;;;5131606;28;20692;-69
2021/06/18 08:35:08;;;;;;;1854.80;999.90;;;26.50;99.90;;;;;;5131367;28;20162;-67
2021/06/18 08:37:33;;;;;;;1823.15;999.90;;;26.70;99.90;;;;;;5131551;28;20173;-66
2021/06/18 08:39:59;;;;;;;1742.05;999.90;;;26.80;99.90;;;;;;5131497;28;20154;-66
2021/06/18 08:42:25;;;;;;;1824.35;999.90;;;27.00;99.90;;;;;;5131374;28;20549;-67
2021/06/18 08:44:52;;;;;;;1810.20;999.90;;;27.10;99.90;;;;;;5131315;28;20229;-66
2021/06/18 08:47:17;;;;;;;1803.78;999.90;;;27.10;99.90;;;;;;5131360;28;20218;-66
2021/06/18 08:49:43;;;;;;;1896.78;999.90;;;27.20;99.90;;;;;;5131257;28;20162;-66
2021/06/18 08:52:09;;;;;;;1999.90;999.90;;;27.40;99.90;;;;;;5131228;28;20169;-66
2021/06/18 08:54:42;;;;;;;1998.60;999.90;;;27.60;99.90;;;;;;5131061;28;20507;-65
2021/06/18 08:57:09;;;;;;;1800.38;999.90;;;27.80;99.90;;;;;;5112827;28;20234;-65
2021/06/18 08:59:35;;;;;;;1746.60;999.90;;;27.90;99.90;;;;;;5131099;28;20528;-65
2021/06/18 09:02:01;;;;;;;1999.90;999.90;;;27.90;99.90;;;;;;5112889;28;20162;-66
2021/06/18 09:04:26;;;;;;;1999.90;999.90;;;28.00;99.90;;;;;;5130914;28;20197;-65
2021/06/18 09:06:58;;;;;;;1999.90;999.90;;;28.00;99.90;;;;;;5130961;28;20675;-65
2021/06/18 09:09:28;;;;;;;1999.90;999.90;;;28.00;99.90;;;;;;5130985;28;20274;-65
2021/06/18 09:11:58;;;;;;;1999.90;999.90;;;28.00;99.90;;;;;;5130840;28;20162;-65
2021/06/18 09:14:35;;;;;;;1999.90;999.90;;;28.10;99.90;;;;;;5130870;28;20170;-65
2021/06/18 09:17:23;;;;;;;1999.90;999.90;;;28.20;99.90;;;;;;5130765;28;20193;-65
2021/06/18 09:19:53;;;;;;;1999.90;999.90;;;28.40;99.90;;;;;;5130670;28;20253;-65
2021/06/18 09:22:39;;;;;;;1996.90;999.90;;;28.40;99.90;;;;;;5130595;28;20173;-66
2021/06/18 09:25:07;;;;;;;1999.90;999.90;;;28.40;99.90;;;;;;5130176;28;20217;-66
2021/06/18 09:27:35;;;;;;;1999.90;999.90;;;28.50;99.90;;;;;;5130483;28;20169;-66
2021/06/18 09:30:23;;;;;;;1999.90;999.90;;;28.40;99.90;;;;;;5130466;28;20541;-64
2021/06/18 09:33:09;;;;;;;1999.90;999.90;;;28.40;99.90;;;;;;5130433;28;20162;-66
2021/06/18 09:35:35;;;;;;;1995.78;999.90;;;28.50;99.90;;;;;;5123479;28;20170;-66
2021/06/18 09:38:07;;;;;;;1999.90;999.90;;;28.40;99.90;;;;;;5116638;28;20159;-66
2021/06/18 09:40:33;;;;;;;1999.90;999.90;;;28.40;99.90;;;;;;5116627;28;20250;-66
2021/06/18 09:43:00;;;;;;;1999.90;999.90;;;28.40;99.90;;;;;;5116466;28;20246;-64
2021/06/18 09:45:35;;;;;;;1999.90;999.90;;;28.30;99.90;;;;;;5116165;28;20167;-64
2021/06/18 09:48:33;;;;;;;1999.90;999.90;;;28.30;99.90;;;;;;5116422;28;20193;-64
2021/06/18 09:51:00;;;;;;;1999.90;999.90;;;28.30;99.90;;;;;;5097432;28;20253;-65
2021/06/18 09:53:27;;;;;;;1999.90;999.90;;;28.40;99.90;;;;;;5097296;28;20375;-64
2021/06/18 09:56:05;;;;;;;1999.90;999.90;;;28.40;99.90;;;;;;5116046;28;20639;-64
2021/06/18 09:58:41;;;;;;;1999.90;999.90;;;28.30;99.90;;;;;;5116231;28;20667;-64
2021/06/18 10:01:17;;;;;;;1999.90;999.90;;;28.30;99.90;;;;;;5115894;28;20174;-64
2021/06/18 10:04:06;;;;;;;1881.82;999.90;;;28.30;99.90;;;;;;5116001;28;20196;-64
2021/06/18 10:06:37;;;;;;;1875.80;999.90;;;28.30;99.90;;;;;;5115806;28;20636;-64
2021/06/18 10:09:05;;;;;;;1812.47;999.90;;;28.40;99.90;;;;;;5116087;28;20198;-65
2021/06/18 10:11:32;;;;;;;1999.90;999.90;;;28.60;99.90;;;;;;5115976;28;20219;-65
2021/06/18 10:13:58;;;;;;;1999.90;999.90;;;28.70;99.90;;;;;;5115933;28;20250;-65
2021/06/18 10:16:26;;;;;;;1999.90;999.90;;;28.80;99.90;;;;;;5115902;28;20217;-65
2021/06/18 10:18:54;;;;;;;1999.90;999.90;;;28.80;99.90;;;;;;5115805;28;20187;-65
2021/06/18 10:21:22;;;;;;;1999.90;999.90;;;28.90;99.90;;;;;;5115732;28;20315;-65
2021/06/18 10:23:50;;;;;;;1999.90;999.90;;;29.00;99.90;;;;;;5115520;28;20612;-65
2021/06/18 10:26:17;;;;;;;1999.90;999.90;;;29.10;99.90;;;;;;5115688;28;20158;-65
2021/06/18 10:29:09;;;;;;;1999.90;999.90;;;29.20;99.90;;;;;;5115654;28;20662;-65
2021/06/18 10:31:36;;;;;;;1999.90;999.90;;;29.30;99.90;;;;;;5110568;28;20639;-65
2021/06/18 10:34:07;;;;;;;1999.90;999.90;;;29.40;99.90;;;;;;5115526;28;20166;-65
2021/06/18 10:36:34;;;;;;;1999.90;999.90;;;29.40;99.90;;;;;;5115479;28;20170;-65
2021/06/18 10:39:13;;;;;;;1832.90;999.90;;;29.50;99.90;;;;;;5115527;28;20177;-65
2021/06/18 10:41:49;;;;;;;1999.90;999.90;;;29.40;99.90;;;;;;5115318;28;20189;-65
2021/06/18 10:44:39;;;;;;;1999.90;999.90;;;29.40;99.90;;;;;;5115228;28;20200;-65
2021/06/18 10:47:06;;;;;;;1641.97;999.90;;;29.50;99.90;;;;;;5114204;28;20240;-65
2021/06/18 10:49:39;;;;;;;1821.90;999.90;;;29.60;99.90;;;;;;5114942;28;20159;-65
2021/06/18 10:52:33;;;;;;;1999.90;999.90;;;29.60;99.90;;;;;;5114971;28;20170;-66
2021/06/18 10:54:59;;;;;;;1851.45;999.90;;;29.60;99.90;;;;;;5115100;28;20183;-67
2021/06/18 10:57:26;;;;;;;1562.55;999.90;;;29.60;99.90;;;;;;5115131;28;20254;-64
2021/06/18 10:59:54;;;;;;;1575.85;999.90;;;29.70;99.90;;;;;;5115145;28;20268;-63
2021/06/18 11:02:26;;;;;;;1543.78;999.90;;;29.80;99.90;;;;;;5115040;28;20257;-65
2021/06/18 11:04:53;;;;;;;1241.80;999.90;;;29.80;99.90;;;;;;5114703;28;20190;-63
2021/06/18 11:07:23;;;;;;;1379.50;999.90;;;29.70;99.90;;;;;;5114799;28;20196;-64
2021/06/18 11:09:56;;;;;;;1243.32;999.90;;;29.70;99.90;;;;;;5115126;28;20173;-64
2021/06/18 11:12:26;;;;;;;1242.95;999.90;;;29.70;99.90;;;;;;5114804;28;20162;-65
2021/06/18 11:14:58;;;;;;;1190.03;999.90;;;29.80;99.90;;;;;;5114759;28;20528;-64
2021/06/18 11:17:38;;;;;;;1128.97;999.90;;;29.90;99.90;;;;;;5115148;28;20220;-66
2021/06/18 11:20:09;;;;;;;1090.40;992.80;;;29.90;99.90;;;;;;5096408;28;20714;-65
2021/06/18 11:22:47;;;;;;;1060.65;970.38;;;29.90;99.90;;;;;;5114704;28;20267;-66
2021/06/18 11:25:43;;;;;;;1011.08;928.88;;;30.00;99.90;;;;;;5114456;28;20225;-67
2021/06/18 11:28:27;;;;;;;1073.57;977.10;;;30.10;99.90;;;;;;5078514;28;20512;-66
2021/06/18 11:31:07;;;;;;;918.17;849.88;;;30.10;99.90;;;;;;5096266;28;20166;-67
2021/06/18 11:33:35;;;;;;;969.38;893.90;;;30.00;99.90;;;;;;5114489;28;20257;-67
2021/06/18 11:36:04;;;;;;;933.95;864.03;;;30.10;99.90;;;;;;5114116;28;20166;-65
2021/06/18 11:38:30;;;;;;;795.50;743.08;;;30.30;99.90;;;;;;5114352;28;20166;-65
2021/06/18 11:40:59;;;;;;;872.13;810.50;;;30.30;99.90;;;;;;5114293;28;20258;-65
2021/06/18 11:43:29;;;;;;;775.03;723.72;;;30.20;99.90;;;;;;5114172;28;20200;-64
2021/06/18 11:45:56;;;;;;;999.40;920.92;;;30.20;99.90;;;;;;5114227;28;20255;-70
2021/06/18 11:48:22;;;;;;;1045.70;960.47;;;30.20;99.90;;;;;;5114183;28;20245;-68
2021/06/18 11:50:48;;;;;;;839.42;781.08;;;30.30;99.90;;;;;;5114022;28;20245;-67
2021/06/18 11:53:16;;;;;;;878.03;815.80;;;30.40;99.90;;;;;;5114024;28;20167;-67
2021/06/18 11:55:54;;;;;;;872.60;811.17;;;30.50;99.90;;;;;;5113409;28;20187;-67
2021/06/18 11:58:33;;;;;;;777.95;726.45;;;30.60;99.90;;;;;;5113785;28;20649;-67
2021/06/18 12:01:19;;;;;;;402.40;381.55;;;30.60;99.90;;;;;;5095679;28;20170;-63
2021/06/18 12:03:47;;;;;;;652.72;611.90;;;30.50;99.90;;;;;;5114000;28;20201;-66
2021/06/18 12:06:22;;;;;;;588.83;553.17;;;30.50;99.90;;;;;;5113898;28;20235;-66
2021/06/18 12:08:57;;;;;;;507.02;478.38;;;30.60;99.90;;;;;;5113894;28;20171;-66
2021/06/18 12:11:22;;;;;;;609.30;572.67;;;30.60;99.90;;;;;;5113798;28;20166;-68
2021/06/18 12:13:52;;;;;;;607.72;570.92;;;30.70;99.90;;;;;;5113685;28;20173;-67
2021/06/18 12:16:21;;;;;;;722.25;676.40;;;30.70;99.90;;;;;;5113675;28;20186;-66
2021/06/18 12:18:47;;;;;;;694.45;650.78;;;30.80;99.90;;;;;;5113579;28;20174;-67
2021/06/18 12:21:13;;;;;;;735.38;688.30;;;31.00;99.90;;;;;;5113622;28;20514;-65
2021/06/18 12:23:39;;;;;;;550.45;518.38;;;31.10;99.90;;;;;;5113526;28;20635;-65
2021/06/18 12:26:05;;;;;;;416.02;394.42;;;31.20;99.90;;;;;;5113690;28;20158;-65
2021/06/18 12:28:31;;;;;;;287.27;273.65;;;31.30;99.90;;;;;;5095325;28;20235;-64
2021/06/18 12:30:58;;;;;;;357.05;339.35;;;31.50;99.90;;;;;;5113623;28;20641;-66
2021/06/18 12:33:24;;;;;;;62.25;59.55;;;31.60;99.90;;;;;;5113683;28;20631;-67
2021/06/18 12:35:50;;;;;;;133.02;126.70;;;31.60;99.90;;;;;;5113529;28;20179;-66
2021/06/18 12:38:16;;;;;;;97.82;93.50;;;31.70;99.90;;;;;;5113634;28;20204;-64
2021/06/18 12:40:47;;;;;;;130.32;124.32;;;31.60;99.90;;;;;;5113399;28;20173;-65
2021/06/18 12:43:13;;;;;;;208.27;198.68;;;31.70;99.90;;;;;;5113503;28;20495;-64
2021/06/18 12:45:53;;;;;;;161.43;153.95;;;31.80;99.90;;;;;;5113238;28;20698;-64
2021/06/18 12:48:27;;;;;;;181.23;172.90;;;31.90;99.90;;;;;;5113463;28;20184;-66
2021/06/18 12:50:58;;;;;;;250.82;238.73;;;32.10;99.90;;;;;;5113154;28;20159;-66
2021/06/18 12:53:39;;;;;;;199.02;189.85;;;32.30;99.90;;;;;;5113380;28;20166;-64
2021/06/18 12:56:11;;;;;;;39.97;38.30;;;32.60;99.90;;;;;;5113339;28;20549;-62
2021/06/18 12:58:37;;;;;;;42.53;40.60;;;32.70;99.90;;;;;;5113401;28;20171;-65
2021/06/18 13:01:08;;;;;;;114.72;109.45;;;32.70;99.90;;;;;;5113009;28;20249;-64
2021/06/18 13:03:42;;;;;;;97.50;93.13;;;32.90;99.90;;;;;;5113298;28;20191;-63
2021/06/18 13:06:10;;;;;;;122.88;116.90;;;33.10;99.90;;;;;;5113384;28;20190;-63
2021/06/18 13:08:56;;;;;;;42.47;40.78;;;33.30;99.90;;;;;;5113347;28;20163;-64
2021/06/18 13:11:32;;;;;;;28.42;27.42;;;33.40;99.90;;;;;;5115723;28;20511;-65
2021/06/18 13:14:07;;;;;;;27.48;26.50;;;33.40;99.90;;;;;;5116903;28;20162;-65
2021/06/18 13:16:33;;;;;;;81.15;77.15;;;33.50;99.90;;;;;;5116959;28;20194;-65
2021/06/18 13:19:00;;;;;;;78.38;74.82;;;33.60;99.90;;;;;;5117107;28;20198;-64
2021/06/18 13:21:42;;;;;;;35.95;34.63;;;33.70;99.90;;;;;;5117021;28;20171;-64
2021/06/18 13:24:15;;;;;;;23.05;22.25;;;33.80;99.90;;;;;;5116827;28;20741;-64
2021/06/18 13:26:41;;;;;;;81.95;78.35;;;33.80;99.90;;;;;;5116685;28;20163;-65
2021/06/18 13:29:19;;;;;;;106.57;101.60;;;33.90;99.90;;;;;;5116852;28;20623;-64
2021/06/18 13:31:46;;;;;;;28.90;27.90;;;34.10;99.90;;;;;;5116965;28;20215;-66
2021/06/18 13:34:13;;;;;;;59.78;57.10;;;34.20;99.90;;;;;;5117131;28;20197;-66
2021/06/18 13:36:41;;;;;;;35.67;34.28;;;34.40;99.90;;;;;;5116745;28;20158;-66
2021/06/18 13:39:27;;;;;;;118.60;113.20;;;34.50;99.90;;;;;;5116687;28;20170;-65
2021/06/18 13:41:53;;;;;;;131.80;125.63;;;34.70;99.90;;;;;;5098440;28;20179;-65
2021/06/18 13:44:19;;;;;;;107.28;102.38;;;35.00;99.90;;;;;;5116552;28;20635;-65
2021/06/18 13:46:45;;;;;;;183.48;173.98;;;35.20;99.90;;;;;;5116593;28;20196;-65
2021/06/18 13:49:12;;;;;;;105.63;100.82;;;35.30;99.90;;;;;;5116132;28;20223;-68
2021/06/18 13:51:40;;;;;;;25.30;24.35;;;35.40;99.90;;;;;;5116383;28;20174;-67
2021/06/18 13:54:06;;;;;;;55.10;52.78;;;35.50;99.90;;;;;;5116342;28;20186;-70
2021/06/18 13:56:32;;;;;;;46.97;44.97;;;35.50;99.90;;;;;;5116388;28;20283;-70
2021/06/18 13:58:58;;;;;;;63.40;60.63;;;35.60;99.90;;;;;;5116321;28;20194;-70
2021/06/18 14:01:24;;;;;;;26.55;25.60;;;35.70;99.90;;;;;;5116299;28;20166;-70
2021/06/18 14:03:50;;;;;;;37.45;35.97;;;35.80;99.90;;;;;;5116251;28;20162;-71
2021/06/18 14:06:17;;;;;;;29.63;28.58;;;36.00;99.90;;;;;;5116120;28;20178;-70
2021/06/18 14:08:43;;;;;;;86.28;82.18;;;36.10;99.90;;;;;;5116171;28;20171;-70
2021/06/18 14:11:14;;;;;;;26.80;25.80;;;36.00;99.90;;;;;;5116117;28;20170;-70
2021/06/18 14:13:40;;;;;;;30.13;28.98;;;35.90;99.90;;;;;;5115967;28;20214;-70
2021/06/18 14:16:06;;;;;;;24.95;24.15;;;36.00;99.90;;;;;;5097691;28;20205;-70
2021/06/18 14:18:34;;;;;;;52.33;50.17;;;36.20;99.90;;;;;;5116042;28;20245;-70
2021/06/18 14:20:59;;;;;;;34.75;33.40;;;36.30;99.90;;;;;;5115835;28;20172;-70
2021/06/18 14:23:25;;;;;;;27.23;26.27;;;36.40;99.10;;;;;;5115683;28;20517;-71
2021/06/18 14:25:54;;;;;;;34.78;33.45;;;36.20;98.40;;;;;;5115552;28;20201;-71
2021/06/18 14:28:20;;;;;;;85.78;81.75;;;35.70;98.70;;;;;;5115527;28;20167;-70
2021/06/18 14:30:46;;;;;;;95.88;91.65;;;35.60;99.50;;;;;;5115636;28;20167;-70
2021/06/18 14:33:12;;;;;;;30.42;29.38;;;35.50;99.90;;;;;;5115477;28;20569;-70
2021/06/18 14:35:43;;;;;;;86.50;82.50;;;35.30;99.40;;;;;;5115660;28;20190;-70
2021/06/18 14:38:09;;;;;;;29.08;27.98;;;35.30;99.50;;;;;;5097118;28;20169;-70
2021/06/18 14:40:36;;;;;;;52.70;50.38;;;35.20;99.80;;;;;;5097083;28;20269;-70
2021/06/18 14:43:03;;;;;;;84.13;80.43;;;35.20;99.90;;;;;;5115473;28;20245;-70
2021/06/18 14:45:28;;;;;;;32.15;30.80;;;35.30;99.60;;;;;;5115315;28;20194;-70
2021/06/18 14:47:54;;;;;;;94.57;90.28;;;35.20;98.90;;;;;;5115302;28;20623;-70
2021/06/18 14:50:20;;;;;;;33.42;31.98;;;35.40;99.50;;;;;;5115292;28;20163;-70
2021/06/18 14:52:46;;;;;;;79.43;75.78;;;35.40;99.40;;;;;;5115320;28;20178;-70
2021/06/18 14:55:12;;;;;;;33.13;31.92;;;35.40;99.30;;;;;;5114926;28;20678;-70
2021/06/18 14:57:38;;;;;;;40.25;38.63;;;35.20;99.10;;;;;;5115031;28;20162;-70
2021/06/18 15:00:09;;;;;;;31.73;30.38;;;34.80;99.90;;;;;;5115193;28;20241;-70
2021/06/18 15:02:35;;;;;;;253.77;241.75;;;34.40;98.40;;;;;;5096495;28;20173;-70
2021/06/18 15:05:01;;;;;;;237.95;226.75;;;34.10;99.90;;;;;;5114965;28;20250;-70
2021/06/18 15:07:27;;;;;;;130.27;124.22;;;34.00;99.90;;;;;;5114846;28;20673;-71
2021/06/18 15:09:53;;;;;;;44.72;42.85;;;34.30;99.90;;;;;;5114915;28;20174;-70
2021/06/18 15:12:18;;;;;;;50.92;48.63;;;34.70;99.90;;;;;;5114837;28;20170;-70
2021/06/18 15:14:46;;;;;;;91.88;87.68;;;35.20;99.90;;;;;;5114913;28;20243;-70
2021/06/18 15:17:14;;;;;;;21.45;20.75;;;35.60;99.90;;;;;;5114846;28;20254;-70
2021/06/18 15:19:40;;;;;;;56.58;54.15;;;35.60;99.50;;;;;;5114795;28;20163;-70
2021/06/18 15:22:06;;;;;;;39.00;37.50;;;35.20;99.20;;;;;;5114815;28;20174;-70
2021/06/18 15:24:31;;;;;;;34.85;33.50;;;34.80;99.40;;;;;;5114524;28;20218;-70
2021/06/18 15:26:57;;;;;;;69.35;66.20;;;34.30;99.70;;;;;;5114626;28;20171;-70
2021/06/18 15:29:23;;;;;;;77.15;73.65;;;34.10;99.90;;;;;;5114498;28;20658;-70
2021/06/18 15:31:49;;;;;;;385.02;365.17;;;34.00;99.90;;;;;;5114540;28;20528;-70
2021/06/18 15:34:14;;;;;;;679.40;636.63;;;34.10;99.90;;;;;;5113811;28;20194;-70
2021/06/18 15:36:42;;;;;;;523.58;494.02;;;34.80;99.90;;;;;;5114405;28;20521;-70
2021/06/18 15:39:08;;;;;;;104.38;99.63;;;35.30;99.90;;;;;;5114379;28;20169;-70
2021/06/18 15:41:34;;;;;;;30.65;29.55;;;35.70;99.90;;;;;;5114370;28;20215;-70
2021/06/18 15:44:00;;;;;;;34.13;32.80;;;35.80;99.90;;;;;;5114118;28;20170;-71
2021/06/18 15:46:26;;;;;;;52.42;50.20;;;35.80;99.90;;;;;;5114217;28;20175;-71
2021/06/18 15:48:51;;;;;;;23.30;22.55;;;36.00;99.90;;;;;;5114232;28;20533;-70
2021/06/18 15:51:17;;;;;;;51.38;49.28;;;36.20;99.40;;;;;;5114203;28;20167;-70
2021/06/18 15:53:46;;;;;;;20.02;19.40;;;36.40;99.00;;;;;;5095751;28;20197;-70
2021/06/18 15:56:11;;;;;;;24.23;23.42;;;36.50;99.20;;;;;;5114105;28;20228;-71
2021/06/18 15:58:37;;;;;;;75.70;72.30;;;36.40;99.20;;;;;;5114022;28;20167;-71
2021/06/18 16:01:04;;;;;;;98.65;94.20;;;36.40;98.80;;;;;;5114023;28;20207;-70
2021/06/18 16:03:31;;;;;;;285.95;272.38;;;36.50;98.50;;;;;;5114066;28;20167;-71
2021/06/18 16:05:58;;;;;;;47.42;45.47;;;36.50;99.90;;;;;;5114018;28;20631;-70
2021/06/18 16:08:24;;;;;;;185.05;176.32;;;36.60;98.30;;;;;;5114020;28;20197;-71
2021/06/18 16:10:49;;;;;;;353.27;335.08;;;36.90;98.00;;;;;;5113955;28;20622;-71
2021/06/18 16:13:15;;;;;;;319.20;303.58;;;36.60;99.20;;;;;;5113715;28;20492;-70
2021/06/18 16:15:41;;;;;;;91.97;87.88;;;37.10;98.20;;;;;;5095653;28;20277;-70
2021/06/18 16:18:06;;;;;;;439.38;415.88;;;37.20;98.10;;;;;;5114058;28;20175;-71
2021/06/18 16:20:32;;;;;;;436.25;412.92;;;37.20;97.80;;;;;;5113631;28;20162;-71
2021/06/18 16:22:59;;;;;;;39.22;37.63;;;37.20;97.90;;;;;;5113652;28;20167;-71
2021/06/18 16:25:25;;;;;;;36.72;35.05;;;37.40;97.50;;;;;;5113605;28;20576;-71
2021/06/18 16:27:52;;;;;;;537.63;506.20;;;37.10;98.30;;;;;;5113576;28;20241;-71
2021/06/18 16:30:19;;;;;;;719.58;673.50;;;37.10;99.00;;;;;;5113688;28;20167;-71
2021/06/18 16:32:45;;;;;;;626.40;587.70;;;37.00;99.70;;;;;;5113714;28;20241;-71
2021/06/18 16:35:11;;;;;;;770.00;718.65;;;37.20;99.20;;;;;;5113457;28;20206;-71
2021/06/18 16:37:37;;;;;;;746.30;697.22;;;37.20;99.30;;;;;;5113590;28;20688;-71
2021/06/18 16:40:05;;;;;;;194.45;185.32;;;37.40;98.90;;;;;;5113583;28;20249;-71
2021/06/18 16:42:30;;;;;;;432.52;409.33;;;37.40;97.70;;;;;;5113516;28;20433;-71
2021/06/18 16:44:56;;;;;;;559.28;525.75;;;37.30;98.30;;;;;;5113678;28;20231;-71
2021/06/18 16:47:22;;;;;;;137.38;130.73;;;37.40;97.80;;;;;;5117679;28;20239;-71
2021/06/18 16:49:47;;;;;;;134.23;128.10;;;37.40;96.80;;;;;;5117648;28;20253;-71
2021/06/18 16:52:13;;;;;;;23.48;22.65;;;37.30;96.80;;;;;;5117589;28;20222;-71
2021/06/18 16:54:39;;;;;;;20.92;20.10;;;37.20;96.70;;;;;;5117385;28;20199;-71
2021/06/18 16:57:05;;;;;;;175.77;167.57;;;37.00;96.60;;;;;;5117289;28;20183;-70
2021/06/18 16:59:31;;;;;;;662.15;620.75;;;37.00;98.30;;;;;;5117295;28;20223;-72
2021/06/18 17:01:57;;;;;;;138.90;132.10;;;36.90;97.20;;;;;;5117589;28;20170;-72
2021/06/18 17:04:26;;;;;;;84.15;80.38;;;36.90;97.10;;;;;;5117369;28;20182;-72
2021/06/18 17:06:59;;;;;;;156.95;149.57;;;37.00;97.00;;;;;;5117317;28;20175;-71
2021/06/18 17:09:27;;;;;;;130.15;124.10;;;37.10;96.40;;;;;;5117149;28;20166;-72
2021/06/18 17:11:56;;;;;;;102.30;97.63;;;37.10;96.60;;;;;;5117173;28;20194;-72
2021/06/18 17:14:34;;;;;;;569.08;534.85;;;37.20;96.50;;;;;;5116986;28;20202;-72
2021/06/18 17:17:00;;;;;;;310.38;294.92;;;37.20;95.80;;;;;;5117075;28;20303;-72
2021/06/18 17:19:26;;;;;;;163.80;156.18;;;37.30;96.20;;;;;;5117164;28;20190;-72
2021/06/18 17:21:52;;;;;;;252.23;240.27;;;37.10;96.10;;;;;;5116905;28;20173;-72
2021/06/18 17:24:17;;;;;;;391.42;370.90;;;37.10;95.70;;;;;;5116651;28;20226;-72
2021/06/18 17:26:44;;;;;;;179.20;170.90;;;37.10;95.90;;;;;;5116914;28;20170;-72
2021/06/18 17:29:10;;;;;;;20.23;19.55;;;37.00;95.70;;;;;;5116851;28;20169;-72
2021/06/18 17:31:36;;;;;;;156.27;149.00;;;36.70;95.90;;;;;;5098309;28;20175;-71
2021/06/18 17:34:02;;;;;;;112.25;107.07;;;36.70;96.00;;;;;;5116694;28;20269;-71
2021/06/18 17:36:29;;;;;;;88.80;84.68;;;36.40;95.90;;;;;;5116519;28;20172;-71
2021/06/18 17:38:55;;;;;;;53.05;50.85;;;36.40;96.50;;;;;;5098356;28;20586;-71
2021/06/18 17:41:21;;;;;;;30.17;29.05;;;36.20;96.50;;;;;;5116568;28;20246;-71
2021/06/18 17:43:47;;;;;;;182.43;173.88;;;36.10;96.60;;;;;;5116225;28;20245;-71
2021/06/18 17:46:14;;;;;;;268.20;254.82;;;36.00;96.90;;;;;;5116404;28;20171;-71
2021/06/18 17:48:40;;;;;;;305.63;290.63;;;36.00;97.50;;;;;;5116406;28;20643;-71
2021/06/18 17:51:07;;;;;;;52.75;50.45;;;35.90;97.50;;;;;;5116414;28;20171;-71
2021/06/18 17:53:33;;;;;;;564.33;531.13;;;35.80;97.10;;;;;;5097945;28;20170;-71
2021/06/18 17:55:59;;;;;;;345.88;328.08;;;35.60;98.50;;;;;;5097405;28;20190;-71
2021/06/18 17:58:25;;;;;;;464.48;439.05;;;35.50;98.30;;;;;;5116400;28;20170;-71
2021/06/18 18:00:51;;;;;;;220.40;209.90;;;35.40;98.10;;;;;;5116219;28;20158;-71
2021/06/18 18:03:17;;;;;;;701.60;656.97;;;35.30;98.40;;;;;;5116160;28;20249;-71
2021/06/18 18:05:43;;;;;;;421.73;399.02;;;35.20;99.10;;;;;;5116148;28;20159;-71
2021/06/18 18:08:09;;;;;;;438.45;414.55;;;35.20;99.30;;;;;;5116100;28;20159;-71
2021/06/18 18:10:35;;;;;;;792.85;739.78;;;34.90;99.40;;;;;;5097959;28;20167;-72
2021/06/18 18:13:01;;;;;;;830.53;774.05;;;34.80;99.90;;;;;;5115931;28;20228;-72
2021/06/18 18:15:27;;;;;;;613.67;575.40;;;34.70;99.90;;;;;;5097494;28;20202;-72
2021/06/18 18:17:53;;;;;;;716.40;670.05;;;34.60;99.90;;;;;;5115892;28;20220;-72
2021/06/18 18:20:19;;;;;;;980.30;905.53;;;34.60;99.90;;;;;;5115784;28;20170;-72
2021/06/18 18:22:45;;;;;;;1025.28;943.13;;;34.40;99.90;;;;;;5115812;28;20390;-71
2021/06/18 18:25:12;;;;;;;509.15;479.33;;;34.30;99.90;;;;;;5097314;28;20218;-71
2021/06/18 18:27:41;;;;;;;607.15;569.55;;;34.30;99.90;;;;;;5115967;28;20201;-71
2021/06/18 18:30:09;;;;;;;943.17;872.67;;;34.10;99.90;;;;;;5115600;28;20643;-71
2021/06/18 18:32:36;;;;;;;755.88;706.22;;;34.00;99.90;;;;;;5097332;28;20175;-71
2021/06/18 18:35:04;;;;;;;662.28;620.40;;;33.90;99.90;;;;;;5115438;28;20189;-70
2021/06/18 18:37:29;;;;;;;836.22;779.03;;;33.80;99.90;;;;;;5115517;28;20169;-71
2021/06/18 18:39:55;;;;;;;983.78;908.85;;;33.60;99.90;;;;;;5115506;28;20582;-72
2021/06/18 18:42:20;;;;;;;976.08;901.30;;;33.50;99.90;;;;;;5115505;28;20733;-71
2021/06/18 18:44:46;;;;;;;767.90;716.30;;;33.30;99.90;;;;;;5115460;28;20216;-71
2021/06/18 18:47:12;;;;;;;500.33;471.58;;;33.10;99.90;;;;;;5115477;28;20167;-71
2021/06/18 18:49:37;;;;;;;697.67;651.83;;;32.60;99.90;;;;;;5096995;28;20523;-71
2021/06/18 18:52:03;;;;;;;304.15;289.27;;;32.30;99.90;;;;;;5115259;28;20224;-71
2021/06/18 18:54:34;;;;;;;519.17;489.73;;;31.80;99.90;;;;;;5115230;28;20194;-71
2021/06/18 18:57:05;;;;;;;523.03;493.42;;;31.60;99.90;;;;;;5115091;28;20588;-70
2021/06/18 18:59:31;;;;;;;24.83;23.67;;;31.40;99.90;;;;;;5115085;28;20174;-70
2021/06/18 19:01:58;;;;;;;136.65;130.13;;;31.10;99.90;;;;;;5114966;28;20167;-71
2021/06/18 19:04:28;;;;;;;172.18;163.90;;;30.80;99.90;;;;;;5096598;28;20201;-71
2021/06/18 19:06:55;;;;;;;124.18;116.95;;;30.60;99.90;;;;;;5114966;28;20215;-70
2021/06/18 19:09:23;;;;;;;238.18;225.85;;;30.50;99.90;;;;;;5114189;28;20190;-71
2021/06/18 19:12:08;;;;;;;419.17;397.30;;;30.50;99.90;;;;;;5114724;28;20162;-71
2021/06/18 19:14:34;;;;;;;578.35;544.08;;;30.50;99.90;;;;;;5114773;28;20175;-71
2021/06/18 19:17:01;;;;;;;355.90;337.80;;;30.60;99.90;;;;;;5114706;28;20163;-70
